createdAt,value
2022-12-05T00:00:28.263Z,0.00
2022-12-05T00:01:28.223Z,0.00
2022-12-05T00:02:28.260Z,0.00
2022-12-05T00:03:28.213Z,0.00
2022-12-05T00:04:28.285Z,0.00
2022-12-05T00:05:28.220Z,0.00
2022-12-05T00:06:28.188Z,0.00
2022-12-05T00:07:28.322Z,0.00
2022-12-05T00:08:28.189Z,0.00
2022-12-05T00:09:28.167Z,0.00
2022-12-05T00:10:28.186Z,0.00
2022-12-05T00:11:28.150Z,0.00
2022-12-05T00:12:28.137Z,0.00
2022-12-05T00:13:28.129Z,0.00
2022-12-05T00:14:28.127Z,0.00
2022-12-05T00:15:28.144Z,0.00
2022-12-05T00:16:28.149Z,0.00
2022-12-05T00:17:28.101Z,0.00
2022-12-05T00:18:28.100Z,0.00
2022-12-05T00:19:28.090Z,0.00
2022-12-05T00:20:28.101Z,0.00
2022-12-05T00:21:28.073Z,0.00
2022-12-05T00:22:28.064Z,0.00
2022-12-05T00:23:28.058Z,0.00
2022-12-05T00:24:28.045Z,0.00
2022-12-05T00:25:28.062Z,0.00
2022-12-05T00:26:28.036Z,0.00
2022-12-05T00:27:28.026Z,0.00
2022-12-05T00:28:28.015Z,0.00
2022-12-05T00:29:28.008Z,0.00
2022-12-05T00:30:28.034Z,0.00
2022-12-05T00:31:28.102Z,0.00
2022-12-05T00:32:28.008Z,0.00
2022-12-05T00:33:27.976Z,0.00
2022-12-05T00:34:27.969Z,0.00
2022-12-05T00:35:28.103Z,0.00
2022-12-05T00:36:27.949Z,0.00
2022-12-05T00:37:27.947Z,0.00
2022-12-05T00:38:27.936Z,0.00
2022-12-05T00:39:27.926Z,0.00
2022-12-05T00:40:27.954Z,0.00
2022-12-05T00:41:27.913Z,0.00
2022-12-05T00:42:27.904Z,0.00
2022-12-05T00:43:27.906Z,0.00
2022-12-05T00:44:27.893Z,0.00
2022-12-05T00:45:27.894Z,0.00
2022-12-05T00:46:27.943Z,0.00
2022-12-05T00:47:27.870Z,0.00
2022-12-05T00:48:27.866Z,0.00
2022-12-05T00:49:27.859Z,0.00
2022-12-05T00:50:27.848Z,0.00
2022-12-05T00:51:27.865Z,0.00
2022-12-05T00:52:27.834Z,0.00
2022-12-05T00:53:27.830Z,0.00
2022-12-05T00:54:27.818Z,0.00
2022-12-05T00:55:27.814Z,0.00
2022-12-05T00:56:27.833Z,0.00
2022-12-05T00:57:27.798Z,0.00
2022-12-05T00:58:27.795Z,0.00
2022-12-05T00:59:27.787Z,0.00
2022-12-05T01:00:27.776Z,0.00
2022-12-05T01:01:27.818Z,0.00
2022-12-05T01:02:27.768Z,0.00
2022-12-05T01:03:27.846Z,0.00
2022-12-05T01:04:27.752Z,0.00
2022-12-05T01:05:27.742Z,0.00
2022-12-05T01:06:27.760Z,0.00
2022-12-05T01:07:27.730Z,0.00
2022-12-05T01:08:27.724Z,0.00
2022-12-05T01:09:27.717Z,0.00
2022-12-05T01:10:27.707Z,0.00
2022-12-05T01:11:27.723Z,0.00
2022-12-05T01:12:27.686Z,0.00
2022-12-05T01:13:27.677Z,0.00
2022-12-05T01:14:27.670Z,0.00
2022-12-05T01:15:27.664Z,0.00
2022-12-05T01:16:27.773Z,0.00
2022-12-05T01:17:27.646Z,0.00
2022-12-05T01:18:27.642Z,0.00
2022-12-05T01:19:27.634Z,0.00
2022-12-05T01:20:27.628Z,0.00
2022-12-05T01:21:27.642Z,0.00
2022-12-05T01:22:27.610Z,0.00
2022-12-05T01:23:27.605Z,0.00
2022-12-05T01:24:27.593Z,0.00
2022-12-05T01:25:27.586Z,0.00
2022-12-05T01:26:27.605Z,0.00
2022-12-05T01:27:27.572Z,0.00
2022-12-05T01:28:27.624Z,0.00
2022-12-05T01:29:27.559Z,0.00
2022-12-05T01:30:27.553Z,0.00
2022-12-05T01:31:27.608Z,0.00
2022-12-05T01:32:27.532Z,0.00
2022-12-05T01:33:27.528Z,0.00
2022-12-05T01:34:27.523Z,0.00
2022-12-05T01:35:27.515Z,0.00
2022-12-05T01:36:27.529Z,0.00
2022-12-05T01:37:27.501Z,0.00
2022-12-05T01:38:27.498Z,0.00
2022-12-05T01:39:27.479Z,0.00
2022-12-05T01:40:27.468Z,0.00
2022-12-05T01:41:27.493Z,0.00
2022-12-05T01:42:27.458Z,0.00
2022-12-05T01:43:27.451Z,0.00
2022-12-05T01:44:27.441Z,0.00
2022-12-05T01:45:27.435Z,0.00
2022-12-05T01:46:27.497Z,0.00
2022-12-05T01:47:27.422Z,0.00
2022-12-05T01:48:27.411Z,0.00
2022-12-05T01:49:27.401Z,0.00
2022-12-05T01:50:27.397Z,0.00
2022-12-05T01:51:27.417Z,0.00
2022-12-05T01:52:27.382Z,0.00
2022-12-05T01:53:27.376Z,0.00
2022-12-05T01:54:27.371Z,0.00
2022-12-05T01:55:27.353Z,0.00
2022-12-05T01:56:27.391Z,0.00
2022-12-05T01:57:27.353Z,0.00
2022-12-05T01:58:27.344Z,0.00
2022-12-05T01:59:27.327Z,0.00
2022-12-05T02:00:27.315Z,0.00
2022-12-05T02:01:27.413Z,0.00
2022-12-05T02:02:27.353Z,0.00
2022-12-05T02:03:27.297Z,0.00
2022-12-05T02:04:27.293Z,0.00
2022-12-05T02:05:27.281Z,0.00
2022-12-05T02:06:27.326Z,0.00
2022-12-05T02:07:27.262Z,0.00
2022-12-05T02:08:28.257Z,0.00
2022-12-05T02:09:27.250Z,0.00
2022-12-05T02:10:27.242Z,0.00
2022-12-05T02:11:27.262Z,0.00
2022-12-05T02:12:27.228Z,0.00
2022-12-05T02:13:27.229Z,0.00
2022-12-05T02:14:27.210Z,0.00
2022-12-05T02:15:27.204Z,0.00
2022-12-05T02:16:27.307Z,0.00
2022-12-05T02:17:27.192Z,0.00
2022-12-05T02:18:27.190Z,0.00
2022-12-05T02:19:27.180Z,0.00
2022-12-05T02:20:27.175Z,0.00
2022-12-05T02:21:27.184Z,0.00
2022-12-05T02:22:27.152Z,0.00
2022-12-05T02:23:27.147Z,0.00
2022-12-05T02:24:27.137Z,0.00
2022-12-05T02:25:27.131Z,0.00
2022-12-05T02:26:27.173Z,0.00
2022-12-05T02:27:27.115Z,0.00
2022-12-05T02:28:27.103Z,0.00
2022-12-05T02:29:27.091Z,0.00
2022-12-05T02:30:27.089Z,0.00
2022-12-05T02:31:27.190Z,0.00
2022-12-05T02:32:27.068Z,0.00
2022-12-05T02:33:27.061Z,0.00
2022-12-05T02:34:27.054Z,0.00
2022-12-05T02:35:27.045Z,0.00
2022-12-05T02:36:27.066Z,0.00
2022-12-05T02:37:27.029Z,0.00
2022-12-05T02:38:27.019Z,0.00
2022-12-05T02:39:27.012Z,0.00
2022-12-05T02:40:27.005Z,0.00
2022-12-05T02:41:27.000Z,0.00
2022-12-05T02:42:27.018Z,0.00
2022-12-05T02:43:26.980Z,0.00
2022-12-05T02:44:26.978Z,0.00
2022-12-05T02:45:27.000Z,0.00
2022-12-05T02:46:27.015Z,0.00
2022-12-05T02:47:26.978Z,0.00
2022-12-05T02:48:26.947Z,0.00
2022-12-05T02:49:26.943Z,0.00
2022-12-05T02:50:26.935Z,0.00
2022-12-05T02:51:26.924Z,0.00
2022-12-05T02:52:26.941Z,0.00
2022-12-05T02:53:26.908Z,0.00
2022-12-05T02:54:26.899Z,0.00
2022-12-05T02:55:26.890Z,0.00
2022-12-05T02:56:26.887Z,0.00
2022-12-05T02:57:26.901Z,0.00
2022-12-05T02:58:26.872Z,0.00
2022-12-05T02:59:26.856Z,0.00
2022-12-05T03:00:26.853Z,0.00
2022-12-05T03:01:26.878Z,0.00
2022-12-05T03:02:26.861Z,0.00
2022-12-05T03:03:26.827Z,0.00
2022-12-05T03:04:26.923Z,0.00
2022-12-05T03:05:26.818Z,0.00
2022-12-05T03:06:26.809Z,0.00
2022-12-05T03:07:26.824Z,0.00
2022-12-05T03:08:26.792Z,0.00
2022-12-05T03:09:26.781Z,0.00
2022-12-05T03:10:26.772Z,0.00
2022-12-05T03:11:26.769Z,0.00
2022-12-05T03:12:26.783Z,0.00
2022-12-05T03:13:26.754Z,0.00
2022-12-05T03:14:26.745Z,0.00
2022-12-05T03:15:26.741Z,0.00
2022-12-05T03:16:26.794Z,0.00
2022-12-05T03:17:26.744Z,0.00
2022-12-05T03:18:26.713Z,0.00
2022-12-05T03:19:26.711Z,0.00
2022-12-05T03:20:26.698Z,0.00
2022-12-05T03:21:26.690Z,0.00
2022-12-05T03:22:26.714Z,0.00
2022-12-05T03:23:26.677Z,0.00
2022-12-05T03:24:26.670Z,0.00
2022-12-05T03:25:26.659Z,0.00
2022-12-05T03:26:26.653Z,0.00
2022-12-05T03:27:26.667Z,0.00
2022-12-05T03:28:26.633Z,0.00
2022-12-05T03:29:26.631Z,0.00
2022-12-05T03:30:26.670Z,0.00
2022-12-05T03:31:26.679Z,0.00
2022-12-05T03:32:26.635Z,0.00
2022-12-05T03:33:26.594Z,0.00
2022-12-05T03:34:26.584Z,0.00
2022-12-05T03:35:26.579Z,0.00
2022-12-05T03:36:26.567Z,0.00
2022-12-05T03:37:26.562Z,0.00
2022-12-05T03:38:26.584Z,0.00
2022-12-05T03:39:26.549Z,0.00
2022-12-05T03:40:26.545Z,0.00
2022-12-05T03:41:26.532Z,0.00
2022-12-05T03:42:26.534Z,0.00
2022-12-05T03:43:26.542Z,0.00
2022-12-05T03:44:26.508Z,0.00
2022-12-05T03:45:26.498Z,0.00
2022-12-05T03:46:26.601Z,0.00
2022-12-05T03:47:26.507Z,0.00
2022-12-05T03:48:26.499Z,0.00
2022-12-05T03:49:32.083Z,0.00
2022-12-05T03:50:28.459Z,0.00
2022-12-05T03:51:26.448Z,0.00
2022-12-05T03:52:26.445Z,0.00
2022-12-05T03:53:26.458Z,0.00
2022-12-05T03:54:26.426Z,0.00
2022-12-05T03:55:26.415Z,0.00
2022-12-05T03:56:26.413Z,0.00
2022-12-05T03:57:26.398Z,0.00
2022-12-05T03:58:26.421Z,0.00
2022-12-05T03:59:26.393Z,0.00
2022-12-05T04:00:26.381Z,0.00
2022-12-05T04:01:26.424Z,0.00
2022-12-05T04:02:26.363Z,0.00
2022-12-05T04:03:26.426Z,0.00
2022-12-05T04:04:26.342Z,0.00
2022-12-05T04:05:26.342Z,0.00
2022-12-05T04:06:26.327Z,0.00
2022-12-05T04:07:26.320Z,0.00
2022-12-05T04:08:26.341Z,0.00
2022-12-05T04:09:26.306Z,0.00
2022-12-05T04:10:26.299Z,0.00
2022-12-05T04:11:26.286Z,0.00
2022-12-05T04:12:26.277Z,0.00
2022-12-05T04:13:26.303Z,0.00
2022-12-05T04:14:26.270Z,0.00
2022-12-05T04:15:26.258Z,0.00
2022-12-05T04:16:26.306Z,0.00
2022-12-05T04:17:26.244Z,0.00
2022-12-05T04:18:26.262Z,0.00
2022-12-05T04:19:26.229Z,0.00
2022-12-05T04:20:26.214Z,0.00
2022-12-05T04:21:26.207Z,0.00
2022-12-05T04:22:26.200Z,0.00
2022-12-05T04:23:26.219Z,0.00
2022-12-05T04:24:26.188Z,0.00
2022-12-05T04:25:26.170Z,0.00
2022-12-05T04:26:26.166Z,0.00
2022-12-05T04:27:26.160Z,0.00
2022-12-05T04:28:26.151Z,0.00
2022-12-05T04:29:26.167Z,0.00
2022-12-05T04:30:26.136Z,0.00
2022-12-05T04:31:26.221Z,0.00
2022-12-05T04:32:26.169Z,0.00
2022-12-05T04:33:26.112Z,0.00
2022-12-05T04:34:26.122Z,0.00
2022-12-05T04:35:26.094Z,0.00
2022-12-05T04:36:26.081Z,0.00
2022-12-05T04:37:26.082Z,0.00
2022-12-05T04:38:26.070Z,0.00
2022-12-05T04:39:26.088Z,0.00
2022-12-05T04:40:26.056Z,0.00
2022-12-05T04:41:26.046Z,0.00
2022-12-05T04:42:26.042Z,0.00
2022-12-05T04:43:26.034Z,0.00
2022-12-05T04:44:26.050Z,0.00
2022-12-05T04:45:26.013Z,0.00
2022-12-05T04:46:26.096Z,0.00
2022-12-05T04:47:26.001Z,0.00
2022-12-05T04:48:25.993Z,0.00
2022-12-05T04:49:26.009Z,0.00
2022-12-05T04:50:25.975Z,0.00
2022-12-05T04:51:25.967Z,0.00
2022-12-05T04:52:25.962Z,0.00
2022-12-05T04:53:25.953Z,0.00
2022-12-05T04:54:25.969Z,0.00
2022-12-05T04:55:26.009Z,0.00
2022-12-05T04:56:25.930Z,0.00
2022-12-05T04:57:25.921Z,0.00
2022-12-05T04:58:25.916Z,0.00
2022-12-05T04:59:25.933Z,0.00
2022-12-05T05:00:25.897Z,0.00
2022-12-05T05:01:25.964Z,0.00
2022-12-05T05:02:25.925Z,0.00
2022-12-05T05:03:25.880Z,0.00
2022-12-05T05:04:25.897Z,0.00
2022-12-05T05:05:25.861Z,0.00
2022-12-05T05:06:25.855Z,0.00
2022-12-05T05:07:25.847Z,0.00
2022-12-05T05:08:25.838Z,0.00
2022-12-05T05:09:25.852Z,0.00
2022-12-05T05:10:25.818Z,0.00
2022-12-05T05:11:25.812Z,0.00
2022-12-05T05:12:25.811Z,0.00
2022-12-05T05:13:25.798Z,0.00
2022-12-05T05:14:25.814Z,0.00
2022-12-05T05:15:25.779Z,0.00
2022-12-05T05:16:25.848Z,0.00
2022-12-05T05:17:25.763Z,0.00
2022-12-05T05:18:25.761Z,0.00
2022-12-05T05:19:25.783Z,0.00
2022-12-05T05:20:25.741Z,0.00
2022-12-05T05:21:25.734Z,0.00
2022-12-05T05:22:25.724Z,0.00
2022-12-05T05:23:25.716Z,0.00
2022-12-05T05:24:25.732Z,0.00
2022-12-05T05:25:25.700Z,0.00
2022-12-05T05:26:25.698Z,0.00
2022-12-05T05:27:25.688Z,0.00
2022-12-05T05:28:25.675Z,0.00
2022-12-05T05:29:25.671Z,0.00
2022-12-05T05:30:25.689Z,0.00
2022-12-05T05:31:25.699Z,0.00
2022-12-05T05:32:25.647Z,0.00
2022-12-05T05:33:25.642Z,0.00
2022-12-05T05:34:25.631Z,0.00
2022-12-05T05:35:25.654Z,0.00
2022-12-05T05:36:25.624Z,0.00
2022-12-05T05:37:25.605Z,0.00
2022-12-05T05:38:25.604Z,0.00
2022-12-05T05:39:25.597Z,0.00
2022-12-05T05:40:25.612Z,0.00
2022-12-05T05:41:25.579Z,0.00
2022-12-05T05:42:25.576Z,0.00
2022-12-05T05:43:25.565Z,0.00
2022-12-05T05:44:25.560Z,0.00
2022-12-05T05:45:25.576Z,0.00
2022-12-05T05:46:25.575Z,0.00
2022-12-05T05:47:25.537Z,0.00
2022-12-05T05:48:25.529Z,0.00
2022-12-05T05:49:25.522Z,0.00
2022-12-05T05:50:25.542Z,0.00
2022-12-05T05:51:25.507Z,0.00
2022-12-05T05:52:25.503Z,0.00
2022-12-05T05:53:25.496Z,0.00
2022-12-05T05:54:25.484Z,0.00
2022-12-05T05:55:25.502Z,0.00
2022-12-05T05:56:25.467Z,0.00
2022-12-05T05:57:25.463Z,0.00
2022-12-05T05:58:25.452Z,0.00
2022-12-05T05:59:25.450Z,0.00
2022-12-05T06:00:25.463Z,0.00
2022-12-05T06:01:25.430Z,0.00
2022-12-05T06:02:25.449Z,0.00
2022-12-05T06:03:25.523Z,0.00
2022-12-05T06:04:25.467Z,0.00
2022-12-05T06:05:25.431Z,0.00
2022-12-05T06:06:25.392Z,0.00
2022-12-05T06:07:25.387Z,0.00
2022-12-05T06:08:25.426Z,0.00
2022-12-05T06:09:25.368Z,0.00
2022-12-05T06:10:25.394Z,0.00
2022-12-05T06:11:26.717Z,0.00
2022-12-05T06:12:26.344Z,0.00
2022-12-05T06:13:25.342Z,0.00
2022-12-05T06:14:25.374Z,0.00
2022-12-05T06:15:25.315Z,0.00
2022-12-05T06:16:25.428Z,0.00
2022-12-05T06:17:25.303Z,0.00
2022-12-05T06:18:25.294Z,0.00
2022-12-05T06:19:25.285Z,0.00
2022-12-05T06:20:25.286Z,0.00
2022-12-05T06:21:25.353Z,0.00
2022-12-05T06:22:25.265Z,0.00
2022-12-05T06:23:25.258Z,0.00
2022-12-05T06:24:25.246Z,0.00
2022-12-05T06:25:25.241Z,0.00
2022-12-05T06:26:25.258Z,0.00
2022-12-05T06:27:25.220Z,0.00
2022-12-05T06:28:25.214Z,0.00
2022-12-05T06:29:26.753Z,0.00
2022-12-05T06:30:26.200Z,0.00
2022-12-05T06:31:25.277Z,0.00
2022-12-05T06:32:25.182Z,0.00
2022-12-05T06:33:25.167Z,0.00
2022-12-05T06:34:26.235Z,0.00
2022-12-05T06:35:25.161Z,0.00
2022-12-05T06:36:25.174Z,0.00
2022-12-05T06:37:25.147Z,0.00
2022-12-05T06:38:25.141Z,0.00
2022-12-05T06:39:25.130Z,0.00
2022-12-05T06:40:25.132Z,4.00
2022-12-05T06:41:25.123Z,4.00
2022-12-05T06:42:26.101Z,0.00
2022-12-05T06:43:25.095Z,4.00
2022-12-05T06:44:25.090Z,4.00
2022-12-05T06:45:25.085Z,4.00
2022-12-05T06:46:25.153Z,4.00
2022-12-05T06:47:25.065Z,4.00
2022-12-05T06:48:25.055Z,4.00
2022-12-05T06:49:29.921Z,4.00
2022-12-05T06:50:27.050Z,4.00
2022-12-05T06:51:25.059Z,8.00
2022-12-05T06:52:25.025Z,8.00
2022-12-05T06:53:25.022Z,8.00
2022-12-05T06:54:25.008Z,12.00
2022-12-05T06:55:25.005Z,16.00
2022-12-05T06:56:25.023Z,16.00
2022-12-05T06:57:24.999Z,16.00
2022-12-05T06:58:24.983Z,20.00
2022-12-05T06:59:24.973Z,20.00
2022-12-05T07:00:24.966Z,20.00
2022-12-05T07:01:25.050Z,24.00
2022-12-05T07:02:25.037Z,28.00
2022-12-05T07:03:24.945Z,36.00
2022-12-05T07:04:24.935Z,40.00
2022-12-05T07:05:24.937Z,44.00
2022-12-05T07:06:24.953Z,48.00
2022-12-05T07:07:24.902Z,56.00
2022-12-05T07:08:25.909Z,68.00
2022-12-05T07:09:24.906Z,76.00
2022-12-05T07:10:24.893Z,80.00
2022-12-05T07:11:24.910Z,88.00
2022-12-05T07:12:24.880Z,96.00
2022-12-05T07:13:24.860Z,100.00
2022-12-05T07:14:47.155Z,104.00
2022-12-05T07:15:26.845Z,104.00
2022-12-05T07:16:24.900Z,112.00
2022-12-05T07:17:24.860Z,120.00
2022-12-05T07:18:24.822Z,124.00
2022-12-05T07:19:24.816Z,132.00
2022-12-05T07:20:27.894Z,140.00
2022-12-05T07:21:25.826Z,144.00
2022-12-05T07:22:24.791Z,148.00
2022-12-05T07:23:24.792Z,148.00
2022-12-05T07:24:24.779Z,148.00
2022-12-05T07:25:24.769Z,148.00
2022-12-05T07:26:24.765Z,160.00
2022-12-05T07:27:27.726Z,164.00
2022-12-05T07:28:25.746Z,172.00
2022-12-05T07:29:24.737Z,176.00
2022-12-05T07:30:24.728Z,188.00
2022-12-05T07:31:24.800Z,204.00
2022-12-05T07:32:24.742Z,216.00
2022-12-05T07:33:24.710Z,228.00
2022-12-05T07:34:24.699Z,232.00
2022-12-05T07:35:24.696Z,232.00
2022-12-05T07:36:24.695Z,228.00
2022-12-05T07:37:24.700Z,232.00
2022-12-05T07:38:24.665Z,240.00
2022-12-05T07:39:24.659Z,252.00
2022-12-05T07:40:24.665Z,264.00
2022-12-05T07:41:24.643Z,268.00
2022-12-05T07:42:24.675Z,264.00
2022-12-05T07:43:24.636Z,248.00
2022-12-05T07:44:24.625Z,244.00
2022-12-05T07:45:24.614Z,252.00
2022-12-05T07:46:24.638Z,256.00
2022-12-05T07:47:24.662Z,260.00
2022-12-05T07:48:24.593Z,264.00
2022-12-05T07:49:24.577Z,260.00
2022-12-05T07:50:24.584Z,264.00
2022-12-05T07:51:24.568Z,272.00
2022-12-05T07:52:24.628Z,276.00
2022-12-05T07:53:24.551Z,272.00
2022-12-05T07:54:24.552Z,264.00
2022-12-05T07:55:24.525Z,252.00
2022-12-05T07:56:25.530Z,252.00
2022-12-05T07:57:24.544Z,252.00
2022-12-05T07:58:24.512Z,264.00
2022-12-05T07:59:24.504Z,276.00
2022-12-05T08:00:24.493Z,296.00
2022-12-05T08:01:24.555Z,312.00
2022-12-05T08:02:24.561Z,316.00
2022-12-05T08:03:24.475Z,324.00
2022-12-05T08:04:24.465Z,328.00
2022-12-05T08:05:24.457Z,340.00
2022-12-05T08:06:24.449Z,344.00
2022-12-05T08:07:24.481Z,328.00
2022-12-05T08:08:24.457Z,312.00
2022-12-05T08:09:24.423Z,288.00
2022-12-05T08:10:24.420Z,276.00
2022-12-05T08:11:24.409Z,268.00
2022-12-05T08:12:24.427Z,272.00
2022-12-05T08:13:24.395Z,288.00
2022-12-05T08:14:24.383Z,312.00
2022-12-05T08:15:24.384Z,336.00
2022-12-05T08:16:24.379Z,368.00
2022-12-05T08:17:25.388Z,396.00
2022-12-05T08:18:27.309Z,408.00
2022-12-05T08:19:25.345Z,420.00
2022-12-05T08:20:24.342Z,436.00
2022-12-05T08:21:24.339Z,452.00
2022-12-05T08:22:24.351Z,460.00
2022-12-05T08:23:24.305Z,472.00
2022-12-05T08:24:25.310Z,460.00
2022-12-05T08:25:24.374Z,440.00
2022-12-05T08:26:24.296Z,424.00
2022-12-05T08:27:24.311Z,420.00
2022-12-05T08:28:24.281Z,444.00
2022-12-05T08:29:24.278Z,484.00
2022-12-05T08:30:24.382Z,540.00
2022-12-05T08:31:24.423Z,580.00
2022-12-05T08:32:24.274Z,596.00
2022-12-05T08:33:24.246Z,612.00
2022-12-05T08:34:24.232Z,612.00
2022-12-05T08:35:24.232Z,608.00
2022-12-05T08:36:24.224Z,624.00
2022-12-05T08:37:24.240Z,632.00
2022-12-05T08:38:24.210Z,648.00
2022-12-05T08:39:24.199Z,668.00
2022-12-05T08:40:24.199Z,676.00
2022-12-05T08:41:24.181Z,684.00
2022-12-05T08:42:24.200Z,664.00
2022-12-05T08:43:24.168Z,672.00
2022-12-05T08:44:24.162Z,708.00
2022-12-05T08:45:24.150Z,720.00
2022-12-05T08:46:24.227Z,692.00
2022-12-05T08:47:24.157Z,688.00
2022-12-05T08:48:28.993Z,724.00
2022-12-05T08:49:26.120Z,756.00
2022-12-05T08:50:24.113Z,796.00
2022-12-05T08:51:24.106Z,804.00
2022-12-05T08:52:24.123Z,796.00
2022-12-05T08:53:24.096Z,836.00
2022-12-05T08:54:24.087Z,896.00
2022-12-05T08:55:24.094Z,932.00
2022-12-05T08:56:27.250Z,1000.00
2022-12-05T08:57:25.086Z,1068.00
2022-12-05T08:58:24.051Z,1164.00
2022-12-05T08:59:24.044Z,1232.00
2022-12-05T09:00:24.038Z,1304.00
2022-12-05T09:01:24.074Z,1296.00
2022-12-05T09:02:24.123Z,1232.00
2022-12-05T09:03:24.012Z,1136.00
2022-12-05T09:04:24.006Z,1056.00
2022-12-05T09:05:28.443Z,1076.00
2022-12-05T09:06:25.988Z,1184.00
2022-12-05T09:07:23.982Z,1300.00
2022-12-05T09:08:24.049Z,1332.00
2022-12-05T09:09:23.966Z,1424.00
2022-12-05T09:10:23.959Z,1492.00
2022-12-05T09:11:23.956Z,1524.00
2022-12-05T09:12:23.940Z,1592.00
2022-12-05T09:13:23.961Z,1688.00
2022-12-05T09:14:23.932Z,1576.00
2022-12-05T09:15:23.951Z,1392.00
2022-12-05T09:16:23.963Z,1400.00
2022-12-05T09:17:23.907Z,1564.00
2022-12-05T09:18:23.927Z,1716.00
2022-12-05T09:19:23.892Z,1828.00
2022-12-05T09:20:23.917Z,1784.00
2022-12-05T09:21:23.875Z,1752.00
2022-12-05T09:22:24.839Z,1844.00
2022-12-05T09:23:23.885Z,1844.00
2022-12-05T09:24:23.850Z,1816.00
2022-12-05T09:25:23.845Z,1836.00
2022-12-05T09:26:23.832Z,1876.00
2022-12-05T09:27:23.823Z,1948.00
2022-12-05T09:28:23.851Z,1952.00
2022-12-05T09:29:23.813Z,2088.00
2022-12-05T09:30:23.903Z,2204.00
2022-12-05T09:31:23.861Z,2104.00
2022-12-05T09:32:23.777Z,2060.00
2022-12-05T09:33:24.805Z,2116.00
2022-12-05T09:34:23.773Z,2116.00
2022-12-05T09:35:23.765Z,1996.00
2022-12-05T09:36:23.761Z,1880.00
2022-12-05T09:37:38.801Z,1780.00
2022-12-05T09:38:25.761Z,1596.00
2022-12-05T09:39:24.737Z,1420.00
2022-12-05T09:40:23.775Z,1260.00
2022-12-05T09:41:23.724Z,1124.00
2022-12-05T09:42:23.716Z,996.00
2022-12-05T09:43:23.735Z,948.00
2022-12-05T09:44:23.709Z,956.00
2022-12-05T09:45:23.692Z,960.00
2022-12-05T09:46:23.787Z,932.00
2022-12-05T09:47:23.676Z,912.00
2022-12-05T09:48:23.702Z,916.00
2022-12-05T09:49:23.668Z,944.00
2022-12-05T09:50:23.761Z,968.00
2022-12-05T09:51:23.656Z,1036.00
2022-12-05T09:52:23.644Z,1108.00
2022-12-05T09:53:23.662Z,1136.00
2022-12-05T09:54:23.636Z,1192.00
2022-12-05T09:55:23.637Z,1252.00
2022-12-05T09:56:23.619Z,1280.00
2022-12-05T09:57:23.612Z,1252.00
2022-12-05T09:58:23.623Z,1280.00
2022-12-05T09:59:23.586Z,1288.00
2022-12-05T10:00:23.587Z,1352.00
2022-12-05T10:01:23.634Z,1368.00
2022-12-05T10:02:23.568Z,1348.00
2022-12-05T10:03:23.590Z,1360.00
2022-12-05T10:04:23.641Z,1356.00
2022-12-05T10:05:23.604Z,1272.00
2022-12-05T10:06:23.545Z,1188.00
2022-12-05T10:07:23.533Z,1192.00
2022-12-05T10:08:23.621Z,1180.00
2022-12-05T10:09:23.522Z,1132.00
2022-12-05T10:10:23.509Z,1084.00
2022-12-05T10:11:23.498Z,1064.00
2022-12-05T10:12:23.491Z,1004.00
2022-12-05T10:13:23.488Z,928.00
2022-12-05T10:14:23.511Z,872.00
2022-12-05T10:15:23.469Z,824.00
2022-12-05T10:16:23.571Z,828.00
2022-12-05T10:17:23.461Z,844.00
2022-12-05T10:18:23.446Z,856.00
2022-12-05T10:19:23.473Z,860.00
2022-12-05T10:20:23.431Z,856.00
2022-12-05T10:21:23.426Z,808.00
2022-12-05T10:22:23.438Z,804.00
2022-12-05T10:23:55.392Z,884.00
2022-12-05T10:24:25.429Z,944.00
2022-12-05T10:25:23.395Z,948.00
2022-12-05T10:26:23.386Z,984.00
2022-12-05T10:27:23.383Z,900.00
2022-12-05T10:28:23.370Z,824.00
2022-12-05T10:29:23.389Z,896.00
2022-12-05T10:30:23.359Z,948.00
2022-12-05T10:31:23.402Z,964.00
2022-12-05T10:32:23.338Z,952.00
2022-12-05T10:33:23.336Z,920.00
2022-12-05T10:34:23.353Z,872.00
2022-12-05T10:35:23.317Z,868.00
2022-12-05T10:36:23.312Z,864.00
2022-12-05T10:37:23.304Z,888.00
2022-12-05T10:38:23.299Z,936.00
2022-12-05T10:39:23.315Z,1028.00
2022-12-05T10:40:23.286Z,1024.00
2022-12-05T10:41:23.275Z,1008.00
2022-12-05T10:42:23.272Z,1024.00
2022-12-05T10:43:23.262Z,1108.00
2022-12-05T10:44:23.278Z,1076.00
2022-12-05T10:45:23.261Z,1104.00
2022-12-05T10:46:23.281Z,1072.00
2022-12-05T10:47:23.233Z,1176.00
2022-12-05T10:48:23.223Z,1260.00
2022-12-05T10:49:23.245Z,1124.00
2022-12-05T10:50:23.208Z,1016.00
2022-12-05T10:51:23.199Z,988.00
2022-12-05T10:52:23.194Z,1084.00
2022-12-05T10:53:23.182Z,1196.00
2022-12-05T10:54:23.218Z,1160.00
2022-12-05T10:55:23.170Z,1088.00
2022-12-05T10:56:30.133Z,1120.00
2022-12-05T10:57:25.156Z,1044.00
2022-12-05T10:58:23.144Z,1036.00
2022-12-05T10:59:23.160Z,1124.00
2022-12-05T11:00:23.131Z,1172.00
2022-12-05T11:01:23.220Z,1164.00
2022-12-05T11:02:23.300Z,1212.00
2022-12-05T11:03:23.105Z,1244.00
2022-12-05T11:04:23.123Z,1232.00
2022-12-05T11:05:23.138Z,1316.00
2022-12-05T11:06:23.082Z,1396.00
2022-12-05T11:07:23.073Z,1356.00
2022-12-05T11:08:41.417Z,1432.00
2022-12-05T11:09:25.089Z,1444.00
2022-12-05T11:10:26.630Z,1360.00
2022-12-05T11:11:24.045Z,1320.00
2022-12-05T11:12:23.038Z,1308.00
2022-12-05T11:13:23.031Z,1312.00
2022-12-05T11:14:23.048Z,1288.00
2022-12-05T11:15:23.036Z,1388.00
2022-12-05T11:16:23.051Z,1472.00
2022-12-05T11:17:22.998Z,1500.00
2022-12-05T11:18:22.987Z,1400.00
2022-12-05T11:19:22.982Z,1408.00
2022-12-05T11:20:23.004Z,1436.00
2022-12-05T11:21:22.972Z,1372.00
2022-12-05T11:22:22.961Z,1352.00
2022-12-05T11:23:22.953Z,1388.00
2022-12-05T11:24:22.942Z,1384.00
2022-12-05T11:25:22.951Z,1316.00
2022-12-05T11:26:23.930Z,1296.00
2022-12-05T11:27:22.924Z,1252.00
2022-12-05T11:28:22.910Z,1296.00
2022-12-05T11:29:22.908Z,1292.00
2022-12-05T11:30:22.921Z,1240.00
2022-12-05T11:31:23.015Z,1244.00
2022-12-05T11:32:22.877Z,1192.00
2022-12-05T11:33:22.872Z,1248.00
2022-12-05T11:34:22.866Z,1352.00
2022-12-05T11:35:22.882Z,1320.00
2022-12-05T11:36:22.850Z,1212.00
2022-12-05T11:37:22.841Z,1132.00
2022-12-05T11:38:22.831Z,1268.00
2022-12-05T11:39:22.823Z,1356.00
2022-12-05T11:40:28.422Z,1280.00
2022-12-05T11:41:24.807Z,1200.00
2022-12-05T11:42:22.807Z,1160.00
2022-12-05T11:43:23.389Z,1156.00
2022-12-05T11:44:22.788Z,1236.00
2022-12-05T11:45:22.802Z,1288.00
2022-12-05T11:46:26.666Z,1156.00
2022-12-05T11:47:23.767Z,1148.00
2022-12-05T11:48:22.762Z,1284.00
2022-12-05T11:49:22.760Z,1300.00
2022-12-05T11:50:22.770Z,1232.00
2022-12-05T11:51:22.736Z,1328.00
2022-12-05T11:52:22.726Z,1220.00
2022-12-05T11:53:23.296Z,1252.00
2022-12-05T11:54:48.734Z,1220.00
2022-12-05T11:55:24.727Z,1228.00
2022-12-05T11:56:22.698Z,1260.00
2022-12-05T11:57:22.689Z,1316.00
2022-12-05T11:58:22.682Z,1488.00
2022-12-05T11:59:22.817Z,1592.00
2022-12-05T12:00:22.694Z,1588.00
2022-12-05T12:01:22.656Z,1572.00
2022-12-05T12:02:22.725Z,1596.00
2022-12-05T12:03:22.756Z,1512.00
2022-12-05T12:04:22.639Z,1412.00
2022-12-05T12:05:22.660Z,1344.00
2022-12-05T12:06:22.642Z,1364.00
2022-12-05T12:07:22.620Z,1384.00
2022-12-05T12:08:22.663Z,1440.00
2022-12-05T12:09:22.594Z,1524.00
2022-12-05T12:10:22.625Z,1592.00
2022-12-05T12:11:22.584Z,1740.00
2022-12-05T12:12:22.572Z,1776.00
2022-12-05T12:13:22.572Z,1748.00
2022-12-05T12:14:22.560Z,1660.00
2022-12-05T12:15:22.553Z,1536.00
2022-12-05T12:16:22.600Z,1368.00
2022-12-05T12:17:22.537Z,1320.00
2022-12-05T12:18:22.530Z,1360.00
2022-12-05T12:19:22.525Z,1284.00
2022-12-05T12:20:22.524Z,1312.00
2022-12-05T12:21:22.536Z,1380.00
2022-12-05T12:22:22.496Z,1368.00
2022-12-05T12:23:22.490Z,1384.00
2022-12-05T12:24:22.490Z,1368.00
2022-12-05T12:25:22.473Z,1268.00
2022-12-05T12:26:22.496Z,1252.00
2022-12-05T12:27:22.462Z,1308.00
2022-12-05T12:28:22.458Z,1220.00
2022-12-05T12:29:22.444Z,1228.00
2022-12-05T12:30:22.440Z,1192.00
2022-12-05T12:31:22.468Z,1056.00
2022-12-05T12:32:22.420Z,996.00
2022-12-05T12:33:27.015Z,1080.00
2022-12-05T12:34:25.338Z,1024.00
2022-12-05T12:35:22.402Z,940.00
2022-12-05T12:36:22.425Z,816.00
2022-12-05T12:37:22.386Z,712.00
2022-12-05T12:38:22.383Z,668.00
2022-12-05T12:39:22.367Z,680.00
2022-12-05T12:40:22.365Z,624.00
2022-12-05T12:41:22.376Z,572.00
2022-12-05T12:42:22.355Z,648.00
2022-12-05T12:43:52.177Z,716.00
2022-12-05T12:44:24.325Z,784.00
2022-12-05T12:45:22.415Z,816.00
2022-12-05T12:46:22.428Z,872.00
2022-12-05T12:47:22.305Z,940.00
2022-12-05T12:48:22.300Z,1024.00
2022-12-05T12:49:22.290Z,1080.00